Time,TemperatureF,DewpointF,PressureIn,WindDirection,WindDirectionDegrees,WindSpeedMPH,WindSpeedGustMPH,Humidity,HourlyPrecipIn,Conditions,Clouds,dailyrainin,SoftwareType,DateUTC
2013-01-15 00:08:00,37.6,28.7,30.22,NNW,337,2.2,-999.0,70,-99.99,,,0.00,Acu-Link.com,2013-01-15 05:08:00,
2013-01-15 00:23:00,37.6,28.7,30.24,North,0,4.2,-999.0,70,-99.99,,,0.00,Acu-Link.com,2013-01-15 05:23:00,
2013-01-15 00:38:00,37.4,28.5,30.22,NE,45,2.7,-999.0,70,-99.99,,,0.00,Acu-Link.com,2013-01-15 05:38:00,
2013-01-15 00:53:00,37.2,28.3,30.22,NNE,22,2.7,-999.0,70,-99.99,,,0.00,Acu-Link.com,2013-01-15 05:53:00,
2013-01-15 01:08:00,37.0,28.1,30.23,WNW,292,2.7,-999.0,70,-99.99,,,0.00,Acu-Link.com,2013-01-15 06:08:00,
2013-01-15 01:23:00,36.9,28.4,30.24,NW,315,2.7,-999.0,71,-99.99,,,0.00,Acu-Link.com,2013-01-15 06:23:00,
2013-01-15 01:38:00,36.9,28.4,30.24,NW,315,1.7,-999.0,71,-99.99,,,0.00,Acu-Link.com,2013-01-15 06:38:00,
2013-01-15 01:53:00,36.7,29.5,30.26,WNW,292,1.7,-999.0,75,-99.99,,,0.00,Acu-Link.com,2013-01-15 06:53:00,
2013-01-15 02:09:00,35.8,29.9,30.22,ENE,67,2.7,-999.0,79,-99.99,,,0.00,Acu-Link.com,2013-01-15 07:09:00,
2013-01-15 02:24:00,35.1,30.8,30.23,West,270,1.7,-999.0,84,-99.99,,,0.00,Acu-Link.com,2013-01-15 07:24:00,
2013-01-15 02:39:00,34.7,30.4,30.23,NNE,22,1.7,-999.0,84,-99.99,,,0.00,Acu-Link.com,2013-01-15 07:39:00,
2013-01-15 02:54:00,34.7,31.2,30.23,NW,315,1.7,-999.0,87,-99.99,,,0.00,Acu-Link.com,2013-01-15 07:54:00,
2013-01-15 03:09:00,34.3,31.1,30.21,NW,315,2.2,-999.0,88,-99.99,,,0.00,Acu-Link.com,2013-01-15 08:09:00,
2013-01-15 03:24:00,34.3,31.4,30.20,South,180,1.7,-999.0,89,-99.99,,,0.00,Acu-Link.com,2013-01-15 08:24:00,
2013-01-15 03:39:00,34.3,31.4,30.22,WNW,292,0.0,-999.0,89,-99.99,,,0.00,Acu-Link.com,2013-01-15 08:39:00,
2013-01-15 03:54:00,34.3,30.8,30.22,WNW,292,1.1,-999.0,87,-99.99,,,0.00,Acu-Link.com,2013-01-15 08:54:00,
2013-01-15 04:14:00,34.3,30.8,30.20,South,180,0.0,-999.0,87,-99.99,,,0.00,Acu-Link.com,2013-01-15 09:14:00,
2013-01-15 04:29:00,34.2,30.7,30.19,South,180,0.0,-999.0,87,-99.99,,,0.00,Acu-Link.com,2013-01-15 09:29:00,
2013-01-15 04:44:00,34.2,31.0,30.19,NE,45,0.0,-999.0,88,-99.99,,,0.00,Acu-Link.com,2013-01-15 09:44:00,
2013-01-15 04:59:00,34.2,30.5,30.19,North,0,0.0,-999.0,86,-99.99,,,0.00,Acu-Link.com,2013-01-15 09:59:00,
2013-01-15 05:14:00,33.8,29.5,30.20,NNE,22,0.0,-999.0,84,-99.99,,,0.00,Acu-Link.com,2013-01-15 10:14:00,
2013-01-15 05:29:00,33.3,29.0,30.20,NW,315,0.0,-999.0,84,-99.99,,,0.00,Acu-Link.com,2013-01-15 10:29:00,
2013-01-15 05:44:00,33.1,28.5,30.20,NE,45,0.0,-999.0,83,-99.99,,,0.00,Acu-Link.com,2013-01-15 10:44:00,
2013-01-15 06:00:00,32.4,28.4,30.20,East,90,0.0,-999.0,85,-99.99,,,0.00,Acu-Link.com,2013-01-15 11:00:00,
2013-01-15 06:15:00,31.6,28.5,30.21,West,270,0.0,-999.0,88,-99.99,,,0.00,Acu-Link.com,2013-01-15 11:15:00,
2013-01-15 06:30:00,31.1,28.2,30.23,NE,45,0.0,-999.0,89,-99.99,,,0.00,Acu-Link.com,2013-01-15 11:30:00,
2013-01-15 06:45:00,30.6,28.3,30.24,ESE,112,0.0,-999.0,91,-99.99,,,0.00,Acu-Link.com,2013-01-15 11:45:00,
2013-01-15 07:00:00,30.0,28.0,30.24,SSE,157,0.0,-999.0,92,-99.99,,,0.00,Acu-Link.com,2013-01-15 12:00:00,
2013-01-15 07:15:00,29.3,27.3,30.25,SSE,157,0.0,-999.0,92,-99.99,,,0.00,Acu-Link.com,2013-01-15 12:15:00,
2013-01-15 07:30:00,28.8,27.0,30.25,SSW,202,0.0,-999.0,93,-99.99,,,0.00,Acu-Link.com,2013-01-15 12:30:00,
2013-01-15 07:45:00,28.6,26.6,30.26,South,180,0.0,-999.0,92,-99.99,,,0.00,Acu-Link.com,2013-01-15 12:45:00,
2013-01-15 08:00:00,28.4,26.4,30.26,SSW,202,0.0,-999.0,92,-99.99,,,0.00,Acu-Link.com,2013-01-15 13:00:00,
2013-01-15 08:15:00,28.4,27.9,30.26,SW,225,0.0,-999.0,98,-99.99,,,0.00,Acu-Link.com,2013-01-15 13:15:00,
2013-01-15 08:31:00,32.0,28.9,30.27,WNW,292,0.0,-999.0,88,-99.99,,,0.00,Acu-Link.com,2013-01-15 13:31:00,
2013-01-15 08:46:00,36.1,29.9,30.27,NW,315,0.0,-999.0,78,-99.99,,,0.00,Acu-Link.com,2013-01-15 13:46:00,
2013-01-15 09:01:00,37.8,30.9,30.27,SSW,202,0.0,-999.0,76,-99.99,,,0.00,Acu-Link.com,2013-01-15 14:01:00,
2013-01-15 09:16:00,41.4,31.6,30.28,NNW,337,2.7,-999.0,68,-99.99,,,0.00,Acu-Link.com,2013-01-15 14:16:00,
2013-01-15 09:31:00,41.0,30.5,30.27,NNE,22,4.7,-999.0,66,-99.99,,,0.00,Acu-Link.com,2013-01-15 14:31:00,
2013-01-15 09:46:00,39.2,28.1,30.28,NNE,22,6.3,-999.0,64,-99.99,,,0.00,Acu-Link.com,2013-01-15 14:46:00,
2013-01-15 10:01:00,38.8,28.4,30.28,NW,315,3.2,-999.0,66,-99.99,,,0.00,Acu-Link.com,2013-01-15 15:01:00,
2013-01-15 10:17:00,38.7,28.3,30.29,North,0,3.2,-999.0,66,-99.99,,,0.00,Acu-Link.com,2013-01-15 15:17:00,
2013-01-15 10:32:00,39.0,28.2,30.28,NNE,22,4.2,-999.0,65,-99.99,,,0.00,Acu-Link.com,2013-01-15 15:32:00,
2013-01-15 10:47:00,38.8,28.8,30.27,NW,315,2.7,-999.0,67,-99.99,,,0.00,Acu-Link.com,2013-01-15 15:47:00,
2013-01-15 11:02:00,39.4,29.4,30.26,WNW,292,3.2,-999.0,67,-99.99,,,0.00,Acu-Link.com,2013-01-15 16:02:00,
2013-01-15 11:17:00,39.0,28.6,30.24,NE,45,3.2,-999.0,66,-99.99,,,0.00,Acu-Link.com,2013-01-15 16:17:00,
2013-01-15 11:32:00,39.4,29.4,30.24,WNW,292,1.7,-999.0,67,-99.99,,,0.00,Acu-Link.com,2013-01-15 16:32:00,
2013-01-15 11:47:00,39.9,29.1,30.24,West,270,1.7,-999.0,65,-99.99,,,0.00,Acu-Link.com,2013-01-15 16:47:00,
2013-01-15 12:02:00,40.1,30.0,30.25,NNE,22,1.7,-999.0,67,-99.99,,,0.00,Acu-Link.com,2013-01-15 17:02:00,
2013-01-15 12:18:00,41.0,29.4,30.24,WNW,292,0.0,-999.0,63,-99.99,,,0.00,Acu-Link.com,2013-01-15 17:18:00,
2013-01-15 12:33:00,40.5,28.9,30.24,NW,315,1.7,-999.0,63,-99.99,,,0.00,Acu-Link.com,2013-01-15 17:33:00,
2013-01-15 12:48:00,40.6,29.8,30.24,East,90,0.0,-999.0,65,-99.99,,,0.00,Acu-Link.com,2013-01-15 17:48:00,
2013-01-15 13:03:00,40.3,28.3,30.23,WNW,292,1.7,-999.0,62,-99.99,,,0.00,Acu-Link.com,2013-01-15 18:03:00,
2013-01-15 13:18:00,40.8,29.2,30.24,SW,225,2.2,-999.0,63,-99.99,,,0.00,Acu-Link.com,2013-01-15 18:18:00,
2013-01-15 13:33:00,40.6,29.0,30.24,WNW,292,0.0,-999.0,63,-99.99,,,0.00,Acu-Link.com,2013-01-15 18:33:00,
2013-01-15 13:48:00,40.6,28.6,30.24,NNW,337,1.1,-999.0,62,-99.99,,,0.00,Acu-Link.com,2013-01-15 18:48:00,
2013-01-15 14:03:00,40.3,28.3,30.24,NW,315,0.0,-999.0,62,-99.99,,,0.00,Acu-Link.com,2013-01-15 19:03:00,
2013-01-15 14:18:00,40.1,28.5,30.22,WNW,292,1.1,-999.0,63,-99.99,,,0.00,Acu-Link.com,2013-01-15 19:18:00,
2013-01-15 14:34:00,39.9,28.3,30.22,West,270,1.1,-999.0,63,-99.99,,,0.00,Acu-Link.com,2013-01-15 19:34:00,
2013-01-15 14:49:00,39.9,28.7,30.23,North,0,2.2,-999.0,64,-99.99,,,0.00,Acu-Link.com,2013-01-15 19:49:00,
2013-01-15 15:04:00,39.7,28.9,30.23,ENE,67,3.2,-999.0,65,-99.99,,,0.00,Acu-Link.com,2013-01-15 20:04:00,
2013-01-15 15:19:00,39.9,28.7,30.23,NW,315,2.2,-999.0,64,-99.99,,,0.00,Acu-Link.com,2013-01-15 20:19:00,
2013-01-15 15:34:00,39.6,28.4,30.22,ENE,67,1.7,-999.0,64,-99.99,,,0.00,Acu-Link.com,2013-01-15 20:34:00,
2013-01-15 15:49:00,38.8,27.7,30.22,NE,45,1.7,-999.0,64,-99.99,,,0.00,Acu-Link.com,2013-01-15 20:49:00,
2013-01-15 16:04:00,38.7,28.3,30.22,NW,315,1.1,-999.0,66,-99.99,,,0.00,Acu-Link.com,2013-01-15 21:04:00,
2013-01-15 16:19:00,37.9,27.9,30.22,WNW,292,0.0,-999.0,67,-99.99,,,0.00,Acu-Link.com,2013-01-15 21:19:00,
2013-01-15 16:34:00,37.0,27.8,30.23,NNW,337,0.0,-999.0,69,-99.99,,,0.00,Acu-Link.com,2013-01-15 21:34:00,
2013-01-15 16:50:00,36.3,27.1,30.24,West,270,0.0,-999.0,69,-99.99,,,0.00,Acu-Link.com,2013-01-15 21:50:00,
2013-01-15 17:05:00,35.6,26.5,30.23,WNW,292,0.0,-999.0,69,-99.99,,,0.00,Acu-Link.com,2013-01-15 22:05:00,
2013-01-15 17:20:00,34.7,26.6,30.23,NNW,337,0.0,-999.0,72,-99.99,,,0.00,Acu-Link.com,2013-01-15 22:20:00,
2013-01-15 17:35:00,33.6,27.2,30.23,South,180,0.0,-999.0,77,-99.99,,,0.00,Acu-Link.com,2013-01-15 22:35:00,
2013-01-15 17:50:00,33.1,26.7,30.23,South,180,0.0,-999.0,77,-99.99,,,0.00,Acu-Link.com,2013-01-15 22:50:00,
2013-01-15 18:05:00,32.5,27.0,30.22,WNW,292,0.0,-999.0,80,-99.99,,,0.00,Acu-Link.com,2013-01-15 23:05:00,
2013-01-15 18:20:00,32.0,26.8,30.23,North,0,0.0,-999.0,81,-99.99,,,0.00,Acu-Link.com,2013-01-15 23:20:00,
2013-01-15 18:36:00,31.1,26.6,30.23,NW,315,0.0,-999.0,83,-99.99,,,0.00,Acu-Link.com,2013-01-15 23:36:00,
2013-01-15 18:51:00,30.4,26.7,30.22,NE,45,0.0,-999.0,86,-99.99,,,0.00,Acu-Link.com,2013-01-15 23:51:00,
2013-01-15 19:06:00,30.0,26.3,30.24,NNW,337,0.0,-999.0,86,-99.99,,,0.00,Acu-Link.com,2013-01-16 00:06:00,
2013-01-15 19:21:00,29.5,26.4,30.23,NNW,337,0.0,-999.0,88,-99.99,,,0.00,Acu-Link.com,2013-01-16 00:21:00,
2013-01-15 19:36:00,29.3,26.5,30.23,SE,135,0.0,-999.0,89,-99.99,,,0.00,Acu-Link.com,2013-01-16 00:36:00,
2013-01-15 19:51:00,29.3,26.5,30.22,SE,135,0.0,-999.0,89,-99.99,,,0.00,Acu-Link.com,2013-01-16 00:51:00,
2013-01-15 20:06:00,29.5,26.9,30.22,South,180,0.0,-999.0,90,-99.99,,,0.00,Acu-Link.com,2013-01-16 01:06:00,
2013-01-15 20:21:00,29.5,27.2,30.21,WNW,292,0.0,-999.0,91,-99.99,,,0.00,Acu-Link.com,2013-01-16 01:21:00,
2013-01-15 20:36:00,29.7,27.4,30.20,ESE,112,0.0,-999.0,91,-99.99,,,0.00,Acu-Link.com,2013-01-16 01:36:00,
2013-01-15 20:52:00,29.5,27.2,30.20,SW,225,0.0,-999.0,91,-99.99,,,0.00,Acu-Link.com,2013-01-16 01:52:00,
2013-01-15 21:07:00,29.5,27.2,30.20,WNW,292,0.0,-999.0,91,-99.99,,,0.00,Acu-Link.com,2013-01-16 02:07:00,
2013-01-15 21:22:00,29.7,27.4,30.20,SW,225,0.0,-999.0,91,-99.99,,,0.00,Acu-Link.com,2013-01-16 02:22:00,
2013-01-15 21:37:00,29.7,27.4,30.20,NNE,22,0.0,-999.0,91,-99.99,,,0.00,Acu-Link.com,2013-01-16 02:37:00,
2013-01-15 21:52:00,29.7,27.4,30.19,SSW,202,0.0,-999.0,91,-99.99,,,0.00,Acu-Link.com,2013-01-16 02:52:00,
2013-01-15 22:07:00,29.7,27.4,30.18,SSE,157,0.0,-999.0,91,-99.99,,,0.00,Acu-Link.com,2013-01-16 03:07:00,
2013-01-15 22:22:00,29.7,27.4,30.18,SSW,202,0.0,-999.0,91,-99.99,,,0.00,Acu-Link.com,2013-01-16 03:22:00,
2013-01-15 22:37:00,29.8,27.5,30.18,South,180,0.0,-999.0,91,-99.99,,,0.00,Acu-Link.com,2013-01-16 03:37:00,
2013-01-15 22:52:00,29.7,27.4,30.19,NNW,337,0.0,-999.0,91,-99.99,,,0.00,Acu-Link.com,2013-01-16 03:52:00,
2013-01-15 23:08:00,29.7,27.7,30.19,SSE,157,0.0,-999.0,92,-99.99,,,0.00,Acu-Link.com,2013-01-16 04:08:00,
2013-01-15 23:23:00,30.0,28.0,30.18,NNW,337,0.0,-999.0,92,-99.99,,,0.00,Acu-Link.com,2013-01-16 04:23:00,
2013-01-15 23:38:00,30.0,27.7,30.16,WSW,247,0.0,-999.0,91,-99.99,,,0.00,Acu-Link.com,2013-01-16 04:38:00,
2013-01-15 23:53:00,30.2,27.9,30.16,SW,225,0.0,-999.0,91,-99.99,,,0.00,Acu-Link.com,2013-01-16 04:53:00,